sensor_id;sensor_type;location;lat;lon;timestamp;temperature;humidity
54264;DHT22;40178;53.042;6.406;2023-04-24T00:00:13;11.20;99.90
54264;DHT22;40178;53.042;6.406;2023-04-24T00:02:39;10.70;99.90
54264;DHT22;40178;53.042;6.406;2023-04-24T00:05:06;11.30;99.90
54264;DHT22;40178;53.042;6.406;2023-04-24T00:07:33;10.70;99.90
54264;DHT22;40178;53.042;6.406;2023-04-24T00:09:59;10.60;99.90
54264;DHT22;40178;53.042;6.406;2023-04-24T00:12:25;10.60;99.90
54264;DHT22;40178;53.042;6.406;2023-04-24T00:14:51;10.50;99.90
54264;DHT22;40178;53.042;6.406;2023-04-24T00:17:16;10.40;99.90
54264;DHT22;40178;53.042;6.406;2023-04-24T00:19:45;10.40;99.90
54264;DHT22;40178;53.042;6.406;2023-04-24T00:22:11;10.40;99.90
54264;DHT22;40178;53.042;6.406;2023-04-24T00:24:39;10.40;99.90
54264;DHT22;40178;53.042;6.406;2023-04-24T00:27:04;10.40;99.90
54264;DHT22;40178;53.042;6.406;2023-04-24T00:29:30;10.40;99.90
54264;DHT22;40178;53.042;6.406;2023-04-24T00:31:55;10.30;99.90
54264;DHT22;40178;53.042;6.406;2023-04-24T00:34:21;10.30;99.90
54264;DHT22;40178;53.042;6.406;2023-04-24T00:36:47;10.20;99.90
54264;DHT22;40178;53.042;6.406;2023-04-24T00:39:14;10.20;99.90
54264;DHT22;40178;53.042;6.406;2023-04-24T00:41:41;10.10;99.90
54264;DHT22;40178;53.042;6.406;2023-04-24T00:44:06;10.10;99.90
54264;DHT22;40178;53.042;6.406;2023-04-24T00:46:32;10.10;99.90
54264;DHT22;40178;53.042;6.406;2023-04-24T00:48:59;10.00;99.90
54264;DHT22;40178;53.042;6.406;2023-04-24T00:51:25;10.00;99.90
54264;DHT22;40178;53.042;6.406;2023-04-24T00:53:50;9.90;99.90
54264;DHT22;40178;53.042;6.406;2023-04-24T00:56:17;9.90;99.90
54264;DHT22;40178;53.042;6.406;2023-04-24T00:58:44;9.90;99.90
54264;DHT22;40178;53.042;6.406;2023-04-24T01:01:10;9.80;99.90
54264;DHT22;40178;53.042;6.406;2023-04-24T01:03:37;9.80;99.90
54264;DHT22;40178;53.042;6.406;2023-04-24T01:06:04;9.80;99.90
54264;DHT22;40178;53.042;6.406;2023-04-24T01:08:30;9.80;99.90
54264;DHT22;40178;53.042;6.406;2023-04-24T01:10:57;9.80;99.90
54264;DHT22;40178;53.042;6.406;2023-04-24T01:13:23;9.80;99.90
54264;DHT22;40178;53.042;6.406;2023-04-24T01:15:49;9.80;99.90
54264;DHT22;40178;53.042;6.406;2023-04-24T01:18:15;9.80;99.90
54264;DHT22;40178;53.042;6.406;2023-04-24T01:20:43;9.80;99.90
54264;DHT22;40178;53.042;6.406;2023-04-24T01:23:10;9.70;99.90
54264;DHT22;40178;53.042;6.406;2023-04-24T01:25:37;9.70;99.90
54264;DHT22;40178;53.042;6.406;2023-04-24T01:28:03;9.70;99.90
54264;DHT22;40178;53.042;6.406;2023-04-24T01:30:29;9.80;99.90
54264;DHT22;40178;53.042;6.406;2023-04-24T01:32:55;9.70;99.90
54264;DHT22;40178;53.042;6.406;2023-04-24T01:35:21;9.70;99.90
54264;DHT22;40178;53.042;6.406;2023-04-24T01:37:47;9.80;99.90
54264;DHT22;40178;53.042;6.406;2023-04-24T01:40:12;9.80;99.90
54264;DHT22;40178;53.042;6.406;2023-04-24T01:42:38;9.80;99.90
54264;DHT22;40178;53.042;6.406;2023-04-24T01:45:06;9.80;99.90
54264;DHT22;40178;53.042;6.406;2023-04-24T01:47:35;9.80;99.90
54264;DHT22;40178;53.042;6.406;2023-04-24T01:50:00;9.80;99.90
54264;DHT22;40178;53.042;6.406;2023-04-24T01:52:26;9.70;99.90
54264;DHT22;40178;53.042;6.406;2023-04-24T01:54:52;9.80;99.90
54264;DHT22;40178;53.042;6.406;2023-04-24T01:57:18;9.80;99.90
54264;DHT22;40178;53.042;6.406;2023-04-24T01:59:44;9.80;99.90
54264;DHT22;40178;53.042;6.406;2023-04-24T02:02:09;9.80;99.90
54264;DHT22;40178;53.042;6.406;2023-04-24T02:04:35;9.80;99.90
54264;DHT22;40178;53.042;6.406;2023-04-24T02:07:00;9.80;99.90
54264;DHT22;40178;53.042;6.406;2023-04-24T02:09:26;9.80;99.90
54264;DHT22;40178;53.042;6.406;2023-04-24T02:11:52;9.80;99.90
54264;DHT22;40178;53.042;6.406;2023-04-24T02:14:17;9.80;99.90
54264;DHT22;40178;53.042;6.406;2023-04-24T02:16:44;9.80;99.90
54264;DHT22;40178;53.042;6.406;2023-04-24T02:19:10;9.80;99.90
54264;DHT22;40178;53.042;6.406;2023-04-24T02:21:35;9.80;99.90
54264;DHT22;40178;53.042;6.406;2023-04-24T02:24:01;9.70;99.90
54264;DHT22;40178;53.042;6.406;2023-04-24T02:26:27;9.80;99.90
54264;DHT22;40178;53.042;6.406;2023-04-24T02:28:53;9.90;99.90
54264;DHT22;40178;53.042;6.406;2023-04-24T02:31:18;9.90;99.90
54264;DHT22;40178;53.042;6.406;2023-04-24T02:33:44;9.80;99.90
54264;DHT22;40178;53.042;6.406;2023-04-24T02:36:10;9.80;99.90
54264;DHT22;40178;53.042;6.406;2023-04-24T02:38:35;9.80;99.90
54264;DHT22;40178;53.042;6.406;2023-04-24T02:41:01;9.90;99.90
54264;DHT22;40178;53.042;6.406;2023-04-24T02:43:29;9.90;99.90
54264;DHT22;40178;53.042;6.406;2023-04-24T02:45:55;9.90;99.90
54264;DHT22;40178;53.042;6.406;2023-04-24T02:48:20;9.80;99.90
54264;DHT22;40178;53.042;6.406;2023-04-24T02:50:46;9.90;99.90
54264;DHT22;40178;53.042;6.406;2023-04-24T02:53:12;9.90;99.90
54264;DHT22;40178;53.042;6.406;2023-04-24T02:55:37;9.80;99.90
54264;DHT22;40178;53.042;6.406;2023-04-24T02:58:03;9.90;99.90
54264;DHT22;40178;53.042;6.406;2023-04-24T03:00:29;9.80;99.90
54264;DHT22;40178;53.042;6.406;2023-04-24T03:02:55;9.80;99.90
54264;DHT22;40178;53.042;6.406;2023-04-24T03:05:21;9.80;99.90
54264;DHT22;40178;53.042;6.406;2023-04-24T03:07:46;9.80;99.90
54264;DHT22;40178;53.042;6.406;2023-04-24T03:10:12;9.80;99.90
54264;DHT22;40178;53.042;6.406;2023-04-24T03:12:37;9.80;99.90
54264;DHT22;40178;53.042;6.406;2023-04-24T03:15:03;9.80;99.90
54264;DHT22;40178;53.042;6.406;2023-04-24T03:17:29;9.80;99.90
54264;DHT22;40178;53.042;6.406;2023-04-24T03:19:55;9.80;99.90
54264;DHT22;40178;53.042;6.406;2023-04-24T03:22:20;9.80;99.90
54264;DHT22;40178;53.042;6.406;2023-04-24T03:24:46;9.80;99.90
54264;DHT22;40178;53.042;6.406;2023-04-24T03:27:11;9.70;99.90
54264;DHT22;40178;53.042;6.406;2023-04-24T03:29:37;9.80;99.90
54264;DHT22;40178;53.042;6.406;2023-04-24T03:32:03;9.80;99.90
54264;DHT22;40178;53.042;6.406;2023-04-24T03:34:28;9.70;99.90
54264;DHT22;40178;53.042;6.406;2023-04-24T03:36:54;9.70;99.90
54264;DHT22;40178;53.042;6.406;2023-04-24T03:39:20;9.70;99.90
54264;DHT22;40178;53.042;6.406;2023-04-24T03:41:45;9.70;99.90
54264;DHT22;40178;53.042;6.406;2023-04-24T03:44:11;9.70;99.90
54264;DHT22;40178;53.042;6.406;2023-04-24T03:46:36;9.70;99.90
54264;DHT22;40178;53.042;6.406;2023-04-24T03:49:02;9.70;99.90
54264;DHT22;40178;53.042;6.406;2023-04-24T03:51:28;9.60;99.90
54264;DHT22;40178;53.042;6.406;2023-04-24T03:53:55;9.70;99.90
54264;DHT22;40178;53.042;6.406;2023-04-24T03:56:21;9.70;99.90
54264;DHT22;40178;53.042;6.406;2023-04-24T03:58:46;9.70;99.90
54264;DHT22;40178;53.042;6.406;2023-04-24T04:01:12;9.70;99.90
54264;DHT22;40178;53.042;6.406;2023-04-24T04:03:38;9.70;99.90
54264;DHT22;40178;53.042;6.406;2023-04-24T04:06:04;9.70;99.90
54264;DHT22;40178;53.042;6.406;2023-04-24T04:08:30;9.70;99.90
54264;DHT22;40178;53.042;6.406;2023-04-24T04:10:55;9.60;99.90
54264;DHT22;40178;53.042;6.406;2023-04-24T04:13:21;9.60;99.90
54264;DHT22;40178;53.042;6.406;2023-04-24T04:15:47;9.60;99.90
54264;DHT22;40178;53.042;6.406;2023-04-24T04:18:12;9.60;99.90
54264;DHT22;40178;53.042;6.406;2023-04-24T04:20:38;9.60;99.90
54264;DHT22;40178;53.042;6.406;2023-04-24T04:23:03;9.60;99.90
54264;DHT22;40178;53.042;6.406;2023-04-24T04:25:29;9.70;99.90
54264;DHT22;40178;53.042;6.406;2023-04-24T04:27:55;9.60;99.90
54264;DHT22;40178;53.042;6.406;2023-04-24T04:30:20;9.60;99.90
54264;DHT22;40178;53.042;6.406;2023-04-24T04:32:46;9.60;99.90
54264;DHT22;40178;53.042;6.406;2023-04-24T04:35:12;9.60;99.90
54264;DHT22;40178;53.042;6.406;2023-04-24T04:37:38;9.60;99.90
54264;DHT22;40178;53.042;6.406;2023-04-24T04:40:04;9.70;99.90
54264;DHT22;40178;53.042;6.406;2023-04-24T04:42:33;9.60;99.90
54264;DHT22;40178;53.042;6.406;2023-04-24T04:45:00;9.70;99.90
54264;DHT22;40178;53.042;6.406;2023-04-24T04:47:26;9.70;99.90
54264;DHT22;40178;53.042;6.406;2023-04-24T04:49:53;9.70;99.90
54264;DHT22;40178;53.042;6.406;2023-04-24T04:52:20;9.70;99.90
54264;DHT22;40178;53.042;6.406;2023-04-24T04:54:45;9.70;99.90
54264;DHT22;40178;53.042;6.406;2023-04-24T04:57:11;9.70;99.90
54264;DHT22;40178;53.042;6.406;2023-04-24T04:59:37;9.70;99.90
54264;DHT22;40178;53.042;6.406;2023-04-24T05:02:03;9.80;99.90
54264;DHT22;40178;53.042;6.406;2023-04-24T05:04:28;9.80;99.90
54264;DHT22;40178;53.042;6.406;2023-04-24T05:06:54;9.80;99.90
54264;DHT22;40178;53.042;6.406;2023-04-24T05:09:20;9.80;99.90
54264;DHT22;40178;53.042;6.406;2023-04-24T05:11:45;9.80;99.90
54264;DHT22;40178;53.042;6.406;2023-04-24T05:14:11;9.80;99.90
54264;DHT22;40178;53.042;6.406;2023-04-24T05:16:38;9.70;99.90
54264;DHT22;40178;53.042;6.406;2023-04-24T05:19:04;9.90;99.90
54264;DHT22;40178;53.042;6.406;2023-04-24T05:21:29;9.70;99.90
54264;DHT22;40178;53.042;6.406;2023-04-24T05:23:56;9.70;99.90
54264;DHT22;40178;53.042;6.406;2023-04-24T05:26:21;9.80;99.90
54264;DHT22;40178;53.042;6.406;2023-04-24T05:28:48;9.70;99.90
54264;DHT22;40178;53.042;6.406;2023-04-24T05:31:13;9.80;99.90
54264;DHT22;40178;53.042;6.406;2023-04-24T05:33:39;9.90;99.90
54264;DHT22;40178;53.042;6.406;2023-04-24T05:36:06;9.80;99.90
54264;DHT22;40178;53.042;6.406;2023-04-24T05:38:31;9.90;99.90
54264;DHT22;40178;53.042;6.406;2023-04-24T05:40:57;9.80;99.90
54264;DHT22;40178;53.042;6.406;2023-04-24T05:43:23;9.90;99.90
54264;DHT22;40178;53.042;6.406;2023-04-24T05:45:48;9.90;99.90
54264;DHT22;40178;53.042;6.406;2023-04-24T05:48:14;9.90;99.90
54264;DHT22;40178;53.042;6.406;2023-04-24T05:50:40;9.80;99.90
54264;DHT22;40178;53.042;6.406;2023-04-24T05:53:06;9.90;99.90
54264;DHT22;40178;53.042;6.406;2023-04-24T05:55:32;9.80;99.90
54264;DHT22;40178;53.042;6.406;2023-04-24T05:57:58;9.90;99.90
54264;DHT22;40178;53.042;6.406;2023-04-24T06:00:24;9.70;99.90
54264;DHT22;40178;53.042;6.406;2023-04-24T06:02:49;9.60;99.90
54264;DHT22;40178;53.042;6.406;2023-04-24T06:05:15;9.70;99.90
54264;DHT22;40178;53.042;6.406;2023-04-24T06:07:41;9.80;99.90
54264;DHT22;40178;53.042;6.406;2023-04-24T06:10:07;9.60;99.90
54264;DHT22;40178;53.042;6.406;2023-04-24T06:12:33;9.70;99.90
54264;DHT22;40178;53.042;6.406;2023-04-24T06:14:58;9.60;99.90
54264;DHT22;40178;53.042;6.406;2023-04-24T06:17:24;9.60;99.90
54264;DHT22;40178;53.042;6.406;2023-04-24T06:19:49;9.60;99.90
54264;DHT22;40178;53.042;6.406;2023-04-24T06:22:15;9.50;99.90
54264;DHT22;40178;53.042;6.406;2023-04-24T06:24:41;9.50;99.90
54264;DHT22;40178;53.042;6.406;2023-04-24T06:27:06;9.60;99.90
54264;DHT22;40178;53.042;6.406;2023-04-24T06:29:33;9.70;99.90
54264;DHT22;40178;53.042;6.406;2023-04-24T06:31:59;9.60;99.90
54264;DHT22;40178;53.042;6.406;2023-04-24T06:34:25;9.80;99.90
54264;DHT22;40178;53.042;6.406;2023-04-24T06:36:51;10.50;99.90
54264;DHT22;40178;53.042;6.406;2023-04-24T06:39:17;10.40;99.90
54264;DHT22;40178;53.042;6.406;2023-04-24T06:41:42;10.00;99.90
54264;DHT22;40178;53.042;6.406;2023-04-24T06:44:08;10.40;99.90
54264;DHT22;40178;53.042;6.406;2023-04-24T06:46:33;10.70;99.90
54264;DHT22;40178;53.042;6.406;2023-04-24T06:49:00;10.30;99.90
54264;DHT22;40178;53.042;6.406;2023-04-24T06:51:26;10.40;99.90
54264;DHT22;40178;53.042;6.406;2023-04-24T06:53:55;10.70;99.90
54264;DHT22;40178;53.042;6.406;2023-04-24T06:56:21;10.60;99.90
54264;DHT22;40178;53.042;6.406;2023-04-24T06:58:48;10.50;99.90
54264;DHT22;40178;53.042;6.406;2023-04-24T07:01:13;10.60;99.90
54264;DHT22;40178;53.042;6.406;2023-04-24T07:03:39;10.50;99.90
54264;DHT22;40178;53.042;6.406;2023-04-24T07:06:05;9.60;99.90
54264;DHT22;40178;53.042;6.406;2023-04-24T07:08:31;9.70;99.90
54264;DHT22;40178;53.042;6.406;2023-04-24T07:10:58;9.60;99.90
54264;DHT22;40178;53.042;6.406;2023-04-24T07:13:24;9.60;99.90
54264;DHT22;40178;53.042;6.406;2023-04-24T07:15:50;9.50;99.90
54264;DHT22;40178;53.042;6.406;2023-04-24T07:18:18;9.60;99.90
54264;DHT22;40178;53.042;6.406;2023-04-24T07:20:44;9.50;99.90
54264;DHT22;40178;53.042;6.406;2023-04-24T07:23:10;9.60;99.90
54264;DHT22;40178;53.042;6.406;2023-04-24T07:25:35;9.40;99.90
54264;DHT22;40178;53.042;6.406;2023-04-24T07:28:01;9.50;99.90
54264;DHT22;40178;53.042;6.406;2023-04-24T07:30:27;9.40;99.90
54264;DHT22;40178;53.042;6.406;2023-04-24T07:32:54;9.30;99.90
54264;DHT22;40178;53.042;6.406;2023-04-24T07:35:20;9.40;99.90
54264;DHT22;40178;53.042;6.406;2023-04-24T07:37:46;9.40;99.90
54264;DHT22;40178;53.042;6.406;2023-04-24T07:40:13;9.40;99.90
54264;DHT22;40178;53.042;6.406;2023-04-24T07:42:39;9.50;99.90
54264;DHT22;40178;53.042;6.406;2023-04-24T07:45:05;9.50;99.90
54264;DHT22;40178;53.042;6.406;2023-04-24T07:47:31;9.50;99.90
54264;DHT22;40178;53.042;6.406;2023-04-24T07:49:58;9.40;99.90
54264;DHT22;40178;53.042;6.406;2023-04-24T07:52:24;9.50;99.90
54264;DHT22;40178;53.042;6.406;2023-04-24T07:54:50;9.80;99.90
54264;DHT22;40178;53.042;6.406;2023-04-24T07:57:16;9.40;99.90
54264;DHT22;40178;53.042;6.406;2023-04-24T07:59:42;9.40;99.90
54264;DHT22;40178;53.042;6.406;2023-04-24T08:02:07;9.30;99.90
54264;DHT22;40178;53.042;6.406;2023-04-24T08:04:33;9.30;99.90
54264;DHT22;40178;53.042;6.406;2023-04-24T08:06:59;9.20;99.90
54264;DHT22;40178;53.042;6.406;2023-04-24T08:09:24;9.10;99.90
54264;DHT22;40178;53.042;6.406;2023-04-24T08:11:50;9.10;99.90
54264;DHT22;40178;53.042;6.406;2023-04-24T08:14:16;9.10;99.90
54264;DHT22;40178;53.042;6.406;2023-04-24T08:16:42;9.10;99.90
54264;DHT22;40178;53.042;6.406;2023-04-24T08:19:07;9.10;99.90
54264;DHT22;40178;53.042;6.406;2023-04-24T08:21:33;9.10;99.90
54264;DHT22;40178;53.042;6.406;2023-04-24T08:23:59;9.00;99.90
54264;DHT22;40178;53.042;6.406;2023-04-24T08:26:24;9.00;99.90
54264;DHT22;40178;53.042;6.406;2023-04-24T08:28:50;9.00;99.90
54264;DHT22;40178;53.042;6.406;2023-04-24T08:31:16;8.90;99.90
54264;DHT22;40178;53.042;6.406;2023-04-24T08:33:41;9.00;99.90
54264;DHT22;40178;53.042;6.406;2023-04-24T08:36:10;9.00;99.90
54264;DHT22;40178;53.042;6.406;2023-04-24T08:38:36;8.90;99.90
54264;DHT22;40178;53.042;6.406;2023-04-24T08:41:02;8.90;99.90
54264;DHT22;40178;53.042;6.406;2023-04-24T08:43:27;9.00;99.90
54264;DHT22;40178;53.042;6.406;2023-04-24T08:45:55;8.80;99.90
54264;DHT22;40178;53.042;6.406;2023-04-24T08:48:22;8.80;99.90
54264;DHT22;40178;53.042;6.406;2023-04-24T08:50:50;8.80;99.90
54264;DHT22;40178;53.042;6.406;2023-04-24T08:53:16;8.70;99.90
54264;DHT22;40178;53.042;6.406;2023-04-24T08:55:43;8.70;99.90
54264;DHT22;40178;53.042;6.406;2023-04-24T08:58:11;8.70;99.90
54264;DHT22;40178;53.042;6.406;2023-04-24T09:00:39;8.60;99.90
54264;DHT22;40178;53.042;6.406;2023-04-24T09:03:05;8.60;99.90
54264;DHT22;40178;53.042;6.406;2023-04-24T09:05:32;8.70;99.90
54264;DHT22;40178;53.042;6.406;2023-04-24T09:07:59;8.70;99.90
54264;DHT22;40178;53.042;6.406;2023-04-24T09:10:27;8.70;99.90
54264;DHT22;40178;53.042;6.406;2023-04-24T09:12:56;8.70;99.90
54264;DHT22;40178;53.042;6.406;2023-04-24T09:15:24;8.70;99.90
54264;DHT22;40178;53.042;6.406;2023-04-24T09:17:50;8.70;99.90
54264;DHT22;40178;53.042;6.406;2023-04-24T09:20:15;8.70;99.90
54264;DHT22;40178;53.042;6.406;2023-04-24T09:22:42;8.80;99.90
54264;DHT22;40178;53.042;6.406;2023-04-24T09:25:09;8.80;99.90
54264;DHT22;40178;53.042;6.406;2023-04-24T09:27:41;8.80;99.90
54264;DHT22;40178;53.042;6.406;2023-04-24T09:30:08;8.80;99.90
54264;DHT22;40178;53.042;6.406;2023-04-24T09:32:34;8.80;99.90
54264;DHT22;40178;53.042;6.406;2023-04-24T09:35:10;8.70;99.90
54264;DHT22;40178;53.042;6.406;2023-04-24T09:37:46;8.70;99.90
54264;DHT22;40178;53.042;6.406;2023-04-24T09:40:21;8.70;99.90
54264;DHT22;40178;53.042;6.406;2023-04-24T09:42:56;8.80;99.90
54264;DHT22;40178;53.042;6.406;2023-04-24T09:45:27;8.80;99.90
54264;DHT22;40178;53.042;6.406;2023-04-24T09:47:54;9.30;99.90
54264;DHT22;40178;53.042;6.406;2023-04-24T09:50:21;8.80;99.90
54264;DHT22;40178;53.042;6.406;2023-04-24T09:52:59;8.90;99.90
54264;DHT22;40178;53.042;6.406;2023-04-24T09:55:26;8.90;99.90
54264;DHT22;40178;53.042;6.406;2023-04-24T09:57:58;8.90;99.90
54264;DHT22;40178;53.042;6.406;2023-04-24T10:00:30;9.00;99.90
54264;DHT22;40178;53.042;6.406;2023-04-24T10:03:00;9.00;99.90
54264;DHT22;40178;53.042;6.406;2023-04-24T10:05:33;9.60;99.90
54264;DHT22;40178;53.042;6.406;2023-04-24T10:08:08;9.10;99.90
54264;DHT22;40178;53.042;6.406;2023-04-24T10:10:40;9.20;99.90
54264;DHT22;40178;53.042;6.406;2023-04-24T10:13:08;9.20;99.90
54264;DHT22;40178;53.042;6.406;2023-04-24T10:15:34;9.30;99.90
54264;DHT22;40178;53.042;6.406;2023-04-24T10:18:00;9.40;99.90
54264;DHT22;40178;53.042;6.406;2023-04-24T10:20:29;9.40;99.90
54264;DHT22;40178;53.042;6.406;2023-04-24T10:22:56;9.40;99.90
54264;DHT22;40178;53.042;6.406;2023-04-24T10:25:30;9.50;99.90
54264;DHT22;40178;53.042;6.406;2023-04-24T10:27:57;9.30;99.90
54264;DHT22;40178;53.042;6.406;2023-04-24T10:30:26;9.30;99.90
54264;DHT22;40178;53.042;6.406;2023-04-24T10:32:52;9.30;99.90
54264;DHT22;40178;53.042;6.406;2023-04-24T10:35:18;9.30;99.90
54264;DHT22;40178;53.042;6.406;2023-04-24T10:37:59;9.20;99.90
54264;DHT22;40178;53.042;6.406;2023-04-24T10:40:34;9.20;99.90
54264;DHT22;40178;53.042;6.406;2023-04-24T10:43:02;9.20;99.90
54264;DHT22;40178;53.042;6.406;2023-04-24T10:45:28;9.10;99.90
54264;DHT22;40178;53.042;6.406;2023-04-24T10:48:05;9.10;99.90
54264;DHT22;40178;53.042;6.406;2023-04-24T10:50:52;9.20;99.90
54264;DHT22;40178;53.042;6.406;2023-04-24T10:53:20;9.10;99.90
54264;DHT22;40178;53.042;6.406;2023-04-24T10:56:06;9.20;99.90
54264;DHT22;40178;53.042;6.406;2023-04-24T10:58:40;9.20;99.90
54264;DHT22;40178;53.042;6.406;2023-04-24T11:01:23;9.20;99.90
54264;DHT22;40178;53.042;6.406;2023-04-24T11:04:00;9.40;99.90
54264;DHT22;40178;53.042;6.406;2023-04-24T11:06:32;9.30;99.90
54264;DHT22;40178;53.042;6.406;2023-04-24T11:09:08;9.40;99.90
54264;DHT22;40178;53.042;6.406;2023-04-24T11:11:37;9.30;99.90
54264;DHT22;40178;53.042;6.406;2023-04-24T11:14:07;9.30;99.90
54264;DHT22;40178;53.042;6.406;2023-04-24T11:16:53;9.30;99.90
54264;DHT22;40178;53.042;6.406;2023-04-24T11:19:24;9.30;99.90
54264;DHT22;40178;53.042;6.406;2023-04-24T11:22:00;9.30;99.90
54264;DHT22;40178;53.042;6.406;2023-04-24T11:24:48;9.40;99.90
54264;DHT22;40178;53.042;6.406;2023-04-24T11:27:16;9.60;99.90
54264;DHT22;40178;53.042;6.406;2023-04-24T11:29:46;9.80;99.90
54264;DHT22;40178;53.042;6.406;2023-04-24T11:34:58;9.90;99.90
54264;DHT22;40178;53.042;6.406;2023-04-24T11:37:26;9.80;99.90
54264;DHT22;40178;53.042;6.406;2023-04-24T11:39:54;9.80;99.90
54264;DHT22;40178;53.042;6.406;2023-04-24T11:42:21;9.90;99.90
54264;DHT22;40178;53.042;6.406;2023-04-24T11:44:49;9.50;99.90
54264;DHT22;40178;53.042;6.406;2023-04-24T11:47:15;9.40;99.90
54264;DHT22;40178;53.042;6.406;2023-04-24T11:49:40;9.20;99.90
54264;DHT22;40178;53.042;6.406;2023-04-24T11:52:06;9.10;99.90
54264;DHT22;40178;53.042;6.406;2023-04-24T11:54:32;9.00;99.90
54264;DHT22;40178;53.042;6.406;2023-04-24T11:56:57;8.80;99.90
54264;DHT22;40178;53.042;6.406;2023-04-24T11:59:23;8.80;99.90
54264;DHT22;40178;53.042;6.406;2023-04-24T12:01:49;8.90;99.90
54264;DHT22;40178;53.042;6.406;2023-04-24T12:04:17;8.90;99.90
54264;DHT22;40178;53.042;6.406;2023-04-24T12:07:02;9.00;99.90
54264;DHT22;40178;53.042;6.406;2023-04-24T12:09:28;9.10;99.90
54264;DHT22;40178;53.042;6.406;2023-04-24T12:11:58;9.30;99.90
54264;DHT22;40178;53.042;6.406;2023-04-24T12:14:24;9.40;99.90
54264;DHT22;40178;53.042;6.406;2023-04-24T12:16:52;9.50;99.90
54264;DHT22;40178;53.042;6.406;2023-04-24T12:19:22;9.40;99.90
54264;DHT22;40178;53.042;6.406;2023-04-24T12:22:05;9.40;99.90
54264;DHT22;40178;53.042;6.406;2023-04-24T12:24:31;9.40;99.90
54264;DHT22;40178;53.042;6.406;2023-04-24T12:26:57;9.60;99.90
54264;DHT22;40178;53.042;6.406;2023-04-24T12:29:24;9.70;99.90
54264;DHT22;40178;53.042;6.406;2023-04-24T12:31:51;9.80;99.90
54264;DHT22;40178;53.042;6.406;2023-04-24T12:34:24;9.80;99.90
54264;DHT22;40178;53.042;6.406;2023-04-24T12:36:50;9.80;99.90
54264;DHT22;40178;53.042;6.406;2023-04-24T12:39:20;10.10;99.90
54264;DHT22;40178;53.042;6.406;2023-04-24T12:41:56;9.70;99.90
54264;DHT22;40178;53.042;6.406;2023-04-24T12:44:35;9.60;99.90
54264;DHT22;40178;53.042;6.406;2023-04-24T12:47:02;9.50;99.90
54264;DHT22;40178;53.042;6.406;2023-04-24T12:49:29;9.50;99.90
54264;DHT22;40178;53.042;6.406;2023-04-24T12:51:55;9.60;99.90
54264;DHT22;40178;53.042;6.406;2023-04-24T12:54:22;9.60;99.90
54264;DHT22;40178;53.042;6.406;2023-04-24T12:56:47;9.80;99.90
54264;DHT22;40178;53.042;6.406;2023-04-24T12:59:13;10.20;99.90
54264;DHT22;40178;53.042;6.406;2023-04-24T13:01:39;10.00;99.10
54264;DHT22;40178;53.042;6.406;2023-04-24T13:04:05;10.10;99.90
54264;DHT22;40178;53.042;6.406;2023-04-24T13:06:31;10.00;99.90
54264;DHT22;40178;53.042;6.406;2023-04-24T13:08:57;10.30;99.90
54264;DHT22;40178;53.042;6.406;2023-04-24T13:11:23;9.80;99.90
54264;DHT22;40178;53.042;6.406;2023-04-24T13:13:50;9.80;99.90
54264;DHT22;40178;53.042;6.406;2023-04-24T13:16:15;9.80;99.90
54264;DHT22;40178;53.042;6.406;2023-04-24T13:18:41;9.70;99.90
54264;DHT22;40178;53.042;6.406;2023-04-24T13:21:06;10.20;99.90
54264;DHT22;40178;53.042;6.406;2023-04-24T13:23:32;9.70;99.90
54264;DHT22;40178;53.042;6.406;2023-04-24T13:25:58;9.60;99.90
54264;DHT22;40178;53.042;6.406;2023-04-24T13:28:27;9.70;99.90
54264;DHT22;40178;53.042;6.406;2023-04-24T13:30:53;9.80;99.90
54264;DHT22;40178;53.042;6.406;2023-04-24T13:33:18;9.90;99.90
54264;DHT22;40178;53.042;6.406;2023-04-24T13:35:44;10.10;99.90
54264;DHT22;40178;53.042;6.406;2023-04-24T13:38:10;10.20;95.10
54264;DHT22;40178;53.042;6.406;2023-04-24T13:40:36;10.30;97.80
54264;DHT22;40178;53.042;6.406;2023-04-24T13:43:01;10.20;88.40
54264;DHT22;40178;53.042;6.406;2023-04-24T13:45:27;10.10;99.90
54264;DHT22;40178;53.042;6.406;2023-04-24T13:47:53;10.00;90.60
54264;DHT22;40178;53.042;6.406;2023-04-24T13:50:20;9.90;98.60
54264;DHT22;40178;53.042;6.406;2023-04-24T13:52:46;9.80;99.90
54264;DHT22;40178;53.042;6.406;2023-04-24T13:55:11;9.70;99.90
54264;DHT22;40178;53.042;6.406;2023-04-24T13:57:37;9.70;99.10
54264;DHT22;40178;53.042;6.406;2023-04-24T14:00:03;9.60;99.90
54264;DHT22;40178;53.042;6.406;2023-04-24T14:02:29;9.50;99.90
54264;DHT22;40178;53.042;6.406;2023-04-24T14:04:55;9.50;96.00
54264;DHT22;40178;53.042;6.406;2023-04-24T14:07:21;9.40;99.90
54264;DHT22;40178;53.042;6.406;2023-04-24T14:09:47;9.40;99.90
54264;DHT22;40178;53.042;6.406;2023-04-24T14:12:13;9.30;99.90
54264;DHT22;40178;53.042;6.406;2023-04-24T14:14:39;9.30;99.90
54264;DHT22;40178;53.042;6.406;2023-04-24T14:17:05;9.40;99.90
54264;DHT22;40178;53.042;6.406;2023-04-24T14:19:31;9.40;99.90
54264;DHT22;40178;53.042;6.406;2023-04-24T14:21:56;9.40;99.90
54264;DHT22;40178;53.042;6.406;2023-04-24T14:24:23;9.40;99.90
54264;DHT22;40178;53.042;6.406;2023-04-24T14:26:49;9.30;99.60
54264;DHT22;40178;53.042;6.406;2023-04-24T14:29:15;9.30;99.90
54264;DHT22;40178;53.042;6.406;2023-04-24T14:31:42;9.30;99.90
54264;DHT22;40178;53.042;6.406;2023-04-24T14:34:08;9.30;99.90
54264;DHT22;40178;53.042;6.406;2023-04-24T14:36:33;9.30;99.90
54264;DHT22;40178;53.042;6.406;2023-04-24T14:38:59;9.20;99.90
54264;DHT22;40178;53.042;6.406;2023-04-24T14:41:25;9.10;99.90
54264;DHT22;40178;53.042;6.406;2023-04-24T14:43:50;9.00;99.90
54264;DHT22;40178;53.042;6.406;2023-04-24T14:46:16;9.00;99.90
54264;DHT22;40178;53.042;6.406;2023-04-24T14:48:41;8.90;99.90
54264;DHT22;40178;53.042;6.406;2023-04-24T14:51:07;8.90;99.90
54264;DHT22;40178;53.042;6.406;2023-04-24T14:53:33;8.80;99.90
54264;DHT22;40178;53.042;6.406;2023-04-24T14:55:59;8.90;99.90
54264;DHT22;40178;53.042;6.406;2023-04-24T14:58:24;8.90;99.90
54264;DHT22;40178;53.042;6.406;2023-04-24T15:00:50;8.90;99.90
54264;DHT22;40178;53.042;6.406;2023-04-24T15:03:19;9.00;99.90
54264;DHT22;40178;53.042;6.406;2023-04-24T15:05:45;9.10;99.90
54264;DHT22;40178;53.042;6.406;2023-04-24T15:08:11;9.20;99.90
54264;DHT22;40178;53.042;6.406;2023-04-24T15:10:36;9.30;99.90
54264;DHT22;40178;53.042;6.406;2023-04-24T15:13:02;9.20;99.90
54264;DHT22;40178;53.042;6.406;2023-04-24T15:15:27;9.20;99.90
54264;DHT22;40178;53.042;6.406;2023-04-24T15:17:53;9.20;99.90
54264;DHT22;40178;53.042;6.406;2023-04-24T15:20:19;9.10;99.90
54264;DHT22;40178;53.042;6.406;2023-04-24T15:22:44;9.10;99.90
54264;DHT22;40178;53.042;6.406;2023-04-24T15:25:10;9.10;99.90
54264;DHT22;40178;53.042;6.406;2023-04-24T15:27:45;9.00;99.90
54264;DHT22;40178;53.042;6.406;2023-04-24T15:30:11;8.90;99.90
54264;DHT22;40178;53.042;6.406;2023-04-24T15:32:37;8.90;99.90
54264;DHT22;40178;53.042;6.406;2023-04-24T15:35:03;8.80;99.90
54264;DHT22;40178;53.042;6.406;2023-04-24T15:37:29;8.80;99.90
54264;DHT22;40178;53.042;6.406;2023-04-24T15:39:55;8.80;99.90
54264;DHT22;40178;53.042;6.406;2023-04-24T15:42:21;8.80;99.90
54264;DHT22;40178;53.042;6.406;2023-04-24T15:44:46;8.80;99.90